Key Field
KMEI : now visible

Airfield :











YOU CAN JOIN US ON...

 
LOGIN :

Register | Disclaimer

   EN    FR    IT 

 









Legend :    VFR   Marginal VFR   IFR   Intensive IFR   Very Intensive IFR
Visi :
Ceiling :
>= 8 km
>= 3000ft
5 to 8 km
1000 to 3000 ft
1500m to 5 km
500 to 1000 ft
800 to 1500m
200 to 500 ft
< 800m
< 200 ft
Symbols :   Thunderstorms  Fog  Heavy snow  Heavy precipitations  Wind > 20 kt






- Airport Elevation : 297 ft
- IATA code : MEI


KMEI - Key Field

CURRENT METAR :
  • 060558Z AUTO 00000KT 10SM FEW023 24/23 A2990 RMK AO2 SLP121 60000 T02390228 10250 20239 403220228 50000

EXPIRED METARs :
  • 060514Z AUTO 00000KT 7SM SCT026 24/22 A2990 RMK AO2 T02390222
  • 060458Z AUTO 00000KT 8SM BKN026 24/23 A2991 RMK AO2 SLP122 T02440228
  • 060448Z AUTO 00000KT 8SM BKN026 24/23 A2991 RMK AO2 T02440228 TSNO
  • 060358Z AUTO 00000KT 7SM CLR 24/23 A2991 RMK AO2 SLP123 T02440228

TAF KMEI
Valid from the 06 at 06:00 until the 07 at 06:00 UTC


060531Z 0606/0706 00000KT 6SM BR SCT005
FM060900 00000KT 4SM BR BKN003
FM061400 10004KT P6SM BKN025
FM061700 08006KT P6SM VCTS BKN035CB
FM070100 00000KT P6SM BKN050
KZME FIR / North America



MET'MAP, your aeronautical weather chart ! - Copyright ORBIFLY December 2007 - Disclaimer

ORBIFLY MET'MAP TEAM :

Programming & Development : Alexandra Zaïnal
Concept & original design : Baudouin d'Aumeries
Assistance for programming : Marc-Olivier Méhu
Technical & hardware support : Manuel Goepfert

Contact : metmap@orbifly.com




SOURCES & CREDITS :

   NOAA       Earth
Advisory